createdAt,value
2023-01-17T00:02:28.685Z,4.10
2023-01-17T00:05:15.143Z,4.20
2023-01-17T00:08:01.152Z,4.20
2023-01-17T00:10:29.434Z,4.10
2023-01-17T00:13:03.486Z,4.20
2023-01-17T00:15:32.596Z,4.20
2023-01-17T00:18:00.658Z,4.20
2023-01-17T00:20:50.813Z,4.10
2023-01-17T00:23:41.044Z,4.10
2023-01-17T00:26:19.776Z,4.00
2023-01-17T00:28:49.323Z,4.00
2023-01-17T00:31:18.747Z,4.00
2023-01-17T00:33:46.469Z,3.90
2023-01-17T00:36:14.491Z,3.90
2023-01-17T00:38:43.072Z,3.90
2023-01-17T00:41:15.016Z,3.90
2023-01-17T00:44:01.035Z,3.80
2023-01-17T00:46:47.386Z,3.80
2023-01-17T00:49:40.249Z,3.80
2023-01-17T00:52:26.519Z,3.80
2023-01-17T00:55:12.477Z,3.80
2023-01-17T00:57:58.915Z,3.90
2023-01-17T01:00:45.451Z,3.90
2023-01-17T01:03:32.502Z,3.90
2023-01-17T01:06:23.540Z,3.80
2023-01-17T01:09:10.835Z,3.80
2023-01-17T01:11:57.334Z,3.70
2023-01-17T01:14:44.614Z,3.70
2023-01-17T01:17:30.779Z,3.60
2023-01-17T01:20:17.142Z,3.60
2023-01-17T01:23:13.724Z,3.50
2023-01-17T01:26:14.555Z,3.50
2023-01-17T01:29:03.423Z,3.40
2023-01-17T01:31:49.988Z,3.50
2023-01-17T01:34:18.006Z,3.50
2023-01-17T01:36:45.672Z,3.50
2023-01-17T01:39:13.396Z,3.50
2023-01-17T01:41:41.133Z,3.50
2023-01-17T01:44:53.440Z,3.50
2023-01-17T01:47:40.938Z,3.50
2023-01-17T01:50:13.686Z,3.50
2023-01-17T01:52:52.402Z,3.50
2023-01-17T01:55:38.474Z,3.50
2023-01-17T01:58:27.049Z,3.40
2023-01-17T02:00:54.837Z,3.30
2023-01-17T02:03:31.498Z,3.10
2023-01-17T02:06:28.953Z,2.90
2023-01-17T02:09:06.538Z,2.70
2023-01-17T02:11:39.084Z,2.50
2023-01-17T02:14:20.191Z,2.30
2023-01-17T02:17:46.596Z,2.20
2023-01-17T02:21:19.157Z,2.10
2023-01-17T02:24:59.871Z,2.00
2023-01-17T02:27:56.546Z,2.20
2023-01-17T02:30:47.925Z,2.30
2023-01-17T02:33:50.568Z,2.10
2023-01-17T02:36:38.074Z,2.00
2023-01-17T02:39:24.856Z,1.80
2023-01-17T02:42:06.377Z,1.60
2023-01-17T02:44:44.171Z,1.40
2023-01-17T02:47:32.823Z,1.30
2023-01-17T02:50:30.988Z,1.30
2023-01-17T02:53:42.435Z,1.30
2023-01-17T02:56:48.484Z,1.30
2023-01-17T03:00:03.693Z,1.30
2023-01-17T03:02:51.794Z,1.30
2023-01-17T03:05:47.578Z,1.20
2023-01-17T03:08:17.731Z,1.30
2023-01-17T03:10:46.356Z,1.30
2023-01-17T03:13:14.231Z,1.30
2023-01-17T03:15:42.646Z,1.30
2023-01-17T03:18:17.327Z,1.30
2023-01-17T03:20:45.103Z,1.20
2023-01-17T03:23:12.727Z,1.10
2023-01-17T03:25:40.426Z,1.10
2023-01-17T03:28:08.027Z,1.10
2023-01-17T03:30:35.731Z,1.10
2023-01-17T03:33:03.688Z,1.20
2023-01-17T03:35:32.845Z,1.20
2023-01-17T03:38:00.911Z,1.30
2023-01-17T03:40:28.654Z,1.20
2023-01-17T03:42:56.341Z,1.30
2023-01-17T03:45:24.025Z,1.30
2023-01-17T03:47:51.921Z,1.20
2023-01-17T03:50:19.631Z,1.30
2023-01-17T03:52:47.965Z,1.30
2023-01-17T03:55:16.266Z,1.30
2023-01-17T03:57:44.011Z,1.30
2023-01-17T04:00:13.578Z,1.40
2023-01-17T04:02:41.293Z,1.40
2023-01-17T04:05:09.977Z,1.50
2023-01-17T04:07:38.264Z,1.50
2023-01-17T04:10:07.562Z,1.60
2023-01-17T04:12:35.190Z,1.60
2023-01-17T04:15:02.969Z,1.60
2023-01-17T04:17:30.902Z,1.60
2023-01-17T04:19:59.294Z,1.60
2023-01-17T04:22:27.034Z,1.60
2023-01-17T04:24:55.765Z,1.70
2023-01-17T04:27:39.489Z,1.70
2023-01-17T04:30:11.419Z,1.60
2023-01-17T04:32:39.143Z,1.60
2023-01-17T04:35:09.534Z,1.60
2023-01-17T04:37:38.658Z,1.70
2023-01-17T04:40:08.384Z,1.70
2023-01-17T04:42:36.341Z,1.80
2023-01-17T04:45:06.198Z,1.80
2023-01-17T04:47:37.050Z,1.80
2023-01-17T04:50:06.160Z,1.80
2023-01-17T04:52:34.118Z,1.80
2023-01-17T04:55:02.802Z,1.80
2023-01-17T04:57:30.732Z,1.80
2023-01-17T04:59:58.554Z,1.80
2023-01-17T05:02:26.373Z,1.70
2023-01-17T05:04:54.163Z,1.80
2023-01-17T05:07:21.808Z,1.80
2023-01-17T05:09:49.561Z,1.80
2023-01-17T05:12:18.037Z,1.80
2023-01-17T05:14:45.749Z,1.80
2023-01-17T05:17:13.478Z,1.80
2023-01-17T05:19:41.201Z,1.80
2023-01-17T05:22:16.455Z,1.80
2023-01-17T05:24:48.420Z,1.90
2023-01-17T05:27:16.552Z,1.80
2023-01-17T05:29:44.168Z,1.80
2023-01-17T05:32:11.910Z,1.70
2023-01-17T05:34:39.585Z,1.60
2023-01-17T05:37:07.240Z,1.50
2023-01-17T05:39:34.885Z,1.50
2023-01-17T05:42:02.556Z,1.50
2023-01-17T05:44:30.223Z,1.50
2023-01-17T05:46:58.216Z,1.40
2023-01-17T05:49:26.270Z,1.30
2023-01-17T05:51:54.999Z,1.20
2023-01-17T05:54:22.803Z,1.20
2023-01-17T05:56:50.532Z,1.00
2023-01-17T05:59:25.604Z,0.90
2023-01-17T06:02:00.594Z,0.90
2023-01-17T06:04:28.313Z,0.90
2023-01-17T06:06:55.998Z,0.90
2023-01-17T06:09:23.790Z,1.00
2023-01-17T06:11:52.059Z,1.00
2023-01-17T06:14:19.635Z,1.10
2023-01-17T06:16:47.945Z,1.10
2023-01-17T06:19:15.670Z,1.10
2023-01-17T06:21:43.300Z,1.10
2023-01-17T06:24:10.962Z,1.10
2023-01-17T06:26:38.595Z,1.20
2023-01-17T06:29:06.266Z,1.30
2023-01-17T06:31:33.890Z,1.30
2023-01-17T06:34:05.631Z,1.40
2023-01-17T06:36:36.004Z,1.40
2023-01-17T06:39:10.979Z,1.40
2023-01-17T06:41:39.939Z,1.50
2023-01-17T06:44:09.676Z,1.50
2023-01-17T06:46:48.931Z,1.50
2023-01-17T06:49:29.598Z,1.50
2023-01-17T06:51:59.919Z,1.60
2023-01-17T06:54:27.537Z,1.50
2023-01-17T06:56:55.235Z,1.60
2023-01-17T06:59:22.905Z,1.60
2023-01-17T07:01:50.732Z,1.60
2023-01-17T07:04:18.381Z,1.50
2023-01-17T07:06:46.148Z,1.50
2023-01-17T07:09:13.909Z,1.60
2023-01-17T07:11:41.601Z,1.60
2023-01-17T07:14:14.675Z,1.60
2023-01-17T07:16:46.216Z,1.60
2023-01-17T07:19:14.094Z,1.60
2023-01-17T07:21:41.706Z,1.60
2023-01-17T07:24:09.891Z,1.60
2023-01-17T07:26:38.131Z,1.60
2023-01-17T07:29:06.374Z,1.60
2023-01-17T07:31:36.781Z,1.60
2023-01-17T07:34:04.634Z,1.60
2023-01-17T07:36:32.599Z,1.60
2023-01-17T07:39:00.361Z,1.60
2023-01-17T07:41:28.123Z,1.60
2023-01-17T07:43:56.473Z,1.60
2023-01-17T07:46:24.247Z,1.60
2023-01-17T07:48:51.871Z,1.60
2023-01-17T07:51:19.605Z,1.60
2023-01-17T07:53:47.324Z,1.60
2023-01-17T07:56:14.971Z,1.50
2023-01-17T07:58:43.060Z,1.50
2023-01-17T08:01:15.314Z,1.50
2023-01-17T08:03:43.649Z,1.50
2023-01-17T08:06:25.478Z,1.60
2023-01-17T08:08:59.140Z,1.60
2023-01-17T08:11:27.191Z,1.70
2023-01-17T08:13:59.524Z,1.70
2023-01-17T08:16:30.554Z,1.70
2023-01-17T08:18:58.372Z,1.70
2023-01-17T08:21:26.132Z,1.70
2023-01-17T08:23:53.884Z,1.70
2023-01-17T08:26:23.387Z,1.60
2023-01-17T08:29:01.172Z,1.50
2023-01-17T08:31:35.113Z,1.40
2023-01-17T08:34:02.986Z,1.40
2023-01-17T08:36:35.990Z,1.50
2023-01-17T08:39:21.616Z,1.40
2023-01-17T08:41:51.773Z,1.50
2023-01-17T08:44:20.158Z,1.50
2023-01-17T08:46:47.963Z,1.50
2023-01-17T08:49:16.060Z,1.50
2023-01-17T08:51:43.786Z,1.60
2023-01-17T08:54:13.076Z,1.70
2023-01-17T08:56:42.888Z,1.80
2023-01-17T08:59:12.482Z,1.90
2023-01-17T09:01:46.210Z,1.90
2023-01-17T09:04:15.587Z,2.10
2023-01-17T09:06:47.478Z,2.00
2023-01-17T09:09:17.912Z,1.80
2023-01-17T09:11:45.692Z,1.90
2023-01-17T09:14:14.485Z,2.00
2023-01-17T09:16:42.620Z,2.20
2023-01-17T09:19:10.593Z,2.20
2023-01-17T09:21:38.265Z,2.30
2023-01-17T09:24:06.503Z,2.40
2023-01-17T09:26:34.741Z,2.40
2023-01-17T09:29:02.490Z,2.50
2023-01-17T09:31:30.251Z,2.40
2023-01-17T09:33:59.560Z,2.30
2023-01-17T09:36:29.294Z,2.40
2023-01-17T09:39:03.976Z,2.40
2023-01-17T09:42:39.414Z,2.50
2023-01-17T09:45:20.027Z,2.40
2023-01-17T09:47:53.992Z,2.40
2023-01-17T09:50:55.977Z,2.50
2023-01-17T09:53:24.109Z,2.40
2023-01-17T09:56:14.675Z,2.50
2023-01-17T09:59:18.760Z,2.70
2023-01-17T10:02:18.274Z,2.70
2023-01-17T10:05:36.730Z,2.80
2023-01-17T10:08:32.040Z,2.70
2023-01-17T10:11:45.462Z,2.50
2023-01-17T10:15:13.241Z,2.50
2023-01-17T10:18:30.510Z,2.40
2023-01-17T10:21:21.199Z,2.30
2023-01-17T10:24:24.779Z,2.30
2023-01-17T10:26:57.777Z,2.30
2023-01-17T10:29:35.491Z,2.30
2023-01-17T10:32:04.289Z,2.40
2023-01-17T10:34:47.628Z,2.50
2023-01-17T10:37:45.509Z,2.50
2023-01-17T10:40:50.326Z,2.70
2023-01-17T10:44:10.500Z,2.70
2023-01-17T10:47:10.629Z,2.70
2023-01-17T10:49:54.555Z,2.70
2023-01-17T10:52:53.418Z,2.70
2023-01-17T10:55:53.543Z,2.80
2023-01-17T10:58:21.702Z,2.70
2023-01-17T11:01:17.501Z,2.80
2023-01-17T11:03:51.918Z,2.90
2023-01-17T11:06:27.476Z,3.00
2023-01-17T11:09:02.179Z,3.00
2023-01-17T11:11:37.572Z,3.00
2023-01-17T11:14:26.383Z,3.10
2023-01-17T11:17:14.124Z,3.00
2023-01-17T11:19:53.494Z,3.10
2023-01-17T11:22:22.884Z,3.10
2023-01-17T11:24:56.351Z,3.10
2023-01-17T11:27:37.708Z,3.00
2023-01-17T11:30:21.119Z,3.00
2023-01-17T11:33:08.914Z,3.20
2023-01-17T11:35:45.503Z,3.30
2023-01-17T11:38:23.992Z,3.40
2023-01-17T11:41:13.501Z,3.40
2023-01-17T11:44:25.852Z,3.40
2023-01-17T11:47:19.769Z,3.50
2023-01-17T11:49:50.217Z,3.60
2023-01-17T11:52:39.205Z,3.70
2023-01-17T11:55:07.522Z,3.80
2023-01-17T11:57:37.081Z,3.90
2023-01-17T12:00:46.074Z,3.90
2023-01-17T12:04:25.240Z,3.90
2023-01-17T12:07:35.207Z,3.90
2023-01-17T12:10:39.207Z,3.60
2023-01-17T12:14:04.109Z,3.60
2023-01-17T12:17:34.979Z,3.50
2023-01-17T12:20:16.700Z,3.50
2023-01-17T12:23:34.559Z,3.60
2023-01-17T12:26:40.752Z,3.70
2023-01-17T12:30:22.679Z,3.60
2023-01-17T12:33:34.800Z,3.50
2023-01-17T12:36:50.377Z,3.40
2023-01-17T12:39:38.350Z,3.50
2023-01-17T12:42:18.746Z,3.60
2023-01-17T12:45:23.780Z,3.70
2023-01-17T12:48:11.597Z,3.90
2023-01-17T12:51:10.756Z,4.00
2023-01-17T12:54:24.282Z,3.90
2023-01-17T12:57:18.911Z,3.90
2023-01-17T13:00:23.173Z,4.20
2023-01-17T13:03:32.742Z,4.10
2023-01-17T13:06:06.536Z,4.10
2023-01-17T13:08:49.769Z,4.10
2023-01-17T13:11:51.980Z,4.30
2023-01-17T13:14:19.874Z,4.60
2023-01-17T13:17:45.169Z,4.50
2023-01-17T13:21:19.310Z,4.40
2023-01-17T13:24:51.899Z,4.40
2023-01-17T13:28:23.195Z,4.40
2023-01-17T13:32:22.153Z,4.40
2023-01-17T13:35:40.707Z,4.20
2023-01-17T13:38:42.619Z,4.10
2023-01-17T13:41:45.175Z,4.10
2023-01-17T13:44:21.705Z,4.00
2023-01-17T13:47:10.704Z,4.10
2023-01-17T13:49:56.308Z,4.00
2023-01-17T13:52:33.287Z,4.00
2023-01-17T13:55:07.368Z,4.00
2023-01-17T13:57:43.789Z,4.10
2023-01-17T14:00:21.500Z,4.10
2023-01-17T14:02:52.919Z,4.20
2023-01-17T14:05:56.818Z,4.20
2023-01-17T14:08:27.567Z,4.20
2023-01-17T14:11:09.807Z,4.20
2023-01-17T14:13:41.834Z,4.30
2023-01-17T14:16:29.712Z,4.30
2023-01-17T14:18:57.666Z,4.40
2023-01-17T14:21:32.405Z,4.40
2023-01-17T14:24:20.139Z,4.40
2023-01-17T14:27:24.369Z,4.40
2023-01-17T14:30:07.553Z,4.30
2023-01-17T14:32:39.551Z,4.20
2023-01-17T14:35:23.581Z,4.20
2023-01-17T14:37:59.361Z,4.00
2023-01-17T14:40:31.905Z,3.70
2023-01-17T14:43:18.988Z,3.50
2023-01-17T14:45:48.183Z,3.40
2023-01-17T14:48:23.693Z,3.40
2023-01-17T14:51:00.134Z,3.40
2023-01-17T14:53:34.002Z,3.40
2023-01-17T14:56:15.450Z,3.30
2023-01-17T14:58:46.531Z,3.20
2023-01-17T15:01:20.486Z,3.10
2023-01-17T15:03:57.242Z,3.10
2023-01-17T15:06:42.187Z,3.00
2023-01-17T15:09:35.769Z,3.00
2023-01-17T15:12:08.740Z,2.90
2023-01-17T15:14:45.785Z,2.90
2023-01-17T15:17:27.476Z,2.90
2023-01-17T15:20:18.197Z,2.90
2023-01-17T15:22:46.939Z,2.70
2023-01-17T15:25:16.316Z,2.60
2023-01-17T15:27:44.304Z,2.40
2023-01-17T15:30:17.140Z,2.20
2023-01-17T15:32:49.434Z,2.00
2023-01-17T15:35:21.258Z,1.90
2023-01-17T15:37:58.532Z,1.80
2023-01-17T15:40:28.293Z,1.60
2023-01-17T15:43:05.554Z,1.60
2023-01-17T15:45:37.324Z,1.50
2023-01-17T15:48:41.507Z,1.50
2023-01-17T15:51:13.623Z,1.60
2023-01-17T15:53:44.169Z,1.60
2023-01-17T15:56:33.893Z,1.60
2023-01-17T15:59:40.423Z,1.60
2023-01-17T16:02:43.782Z,1.40
2023-01-17T16:05:31.195Z,1.20
2023-01-17T16:08:38.599Z,1.00
2023-01-17T16:11:11.861Z,0.90
2023-01-17T16:13:42.491Z,0.80
2023-01-17T16:16:26.633Z,0.70
2023-01-17T16:19:03.241Z,0.70
2023-01-17T16:21:32.537Z,0.50
2023-01-17T16:24:03.260Z,0.40
2023-01-17T16:26:31.147Z,0.20
2023-01-17T16:28:58.963Z,0.20
2023-01-17T16:31:26.916Z,0.10
2023-01-17T16:33:54.714Z,0.00
2023-01-17T16:36:23.129Z,0.00
2023-01-17T16:38:53.251Z,0.00
2023-01-17T16:41:22.256Z,0.20
2023-01-17T16:44:10.490Z,0.10
2023-01-17T16:46:38.797Z,0.10
2023-01-17T16:49:11.256Z,0.00
2023-01-17T16:51:39.408Z,0.00
2023-01-17T16:54:07.246Z,-0.10
2023-01-17T16:56:35.476Z,0.00
2023-01-17T16:59:03.590Z,0.00
2023-01-17T17:01:32.684Z,0.10
2023-01-17T17:04:00.364Z,0.20
2023-01-17T17:06:28.081Z,0.30
2023-01-17T17:08:55.805Z,0.30
2023-01-17T17:11:24.788Z,0.20
2023-01-17T17:13:55.905Z,0.10
2023-01-17T17:16:30.383Z,0.10
2023-01-17T17:19:06.927Z,0.10
2023-01-17T17:21:40.483Z,0.10
2023-01-17T17:24:11.492Z,0.00
2023-01-17T17:26:41.327Z,-0.20
2023-01-17T17:29:14.344Z,-0.30
2023-01-17T17:31:43.846Z,-0.30
2023-01-17T17:34:16.093Z,-0.40
2023-01-17T17:36:44.672Z,-0.50
2023-01-17T17:39:15.862Z,-0.50
2023-01-17T17:41:46.057Z,-0.60
2023-01-17T17:44:13.856Z,-0.60
2023-01-17T17:46:43.068Z,-0.70
2023-01-17T17:49:11.157Z,-0.70
2023-01-17T17:51:41.442Z,-0.80
2023-01-17T17:54:14.741Z,-0.80
2023-01-17T17:56:47.577Z,-0.70
2023-01-17T17:59:20.297Z,-0.80
2023-01-17T18:01:49.195Z,-0.80
2023-01-17T18:04:18.114Z,-0.90
2023-01-17T18:06:46.484Z,-0.80
2023-01-17T18:09:16.449Z,-0.80
2023-01-17T18:11:45.261Z,-0.70
2023-01-17T18:14:16.542Z,-0.60
2023-01-17T18:16:45.402Z,-0.80
2023-01-17T18:19:24.858Z,-0.90
2023-01-17T18:21:53.901Z,-1.00
2023-01-17T18:24:25.475Z,-1.20
2023-01-17T18:26:58.448Z,-1.20
2023-01-17T18:29:28.769Z,-1.20
2023-01-17T18:31:56.994Z,-1.20
2023-01-17T18:34:29.575Z,-1.20
2023-01-17T18:36:58.591Z,-1.20
2023-01-17T18:39:30.167Z,-1.20
2023-01-17T18:41:59.419Z,-1.20
2023-01-17T18:44:28.172Z,-1.30
2023-01-17T18:47:04.603Z,-1.30
2023-01-17T18:49:34.140Z,-1.30
2023-01-17T18:52:02.554Z,-1.30
2023-01-17T18:54:30.328Z,-1.20
2023-01-17T18:56:58.623Z,-1.20
2023-01-17T18:59:26.391Z,-1.20
2023-01-17T19:01:58.932Z,-1.30
2023-01-17T19:04:28.504Z,-1.30
2023-01-17T19:06:56.170Z,-1.40
2023-01-17T19:09:24.090Z,-1.30
2023-01-17T19:11:51.818Z,-1.30
2023-01-17T19:14:19.573Z,-1.30
2023-01-17T19:16:47.335Z,-1.30
2023-01-17T19:19:16.622Z,-1.20
2023-01-17T19:21:44.839Z,-1.30
2023-01-17T19:24:14.414Z,-1.30
2023-01-17T19:26:43.403Z,-1.30
2023-01-17T19:29:12.339Z,-1.30
2023-01-17T19:31:43.419Z,-1.40
2023-01-17T19:34:18.911Z,-1.50
2023-01-17T19:36:47.364Z,-1.50
2023-01-17T19:39:15.070Z,-1.50
2023-01-17T19:41:46.023Z,-1.50
2023-01-17T19:44:15.234Z,-1.50
2023-01-17T19:46:44.243Z,-1.50
2023-01-17T19:49:12.292Z,-1.50
2023-01-17T19:51:40.399Z,-1.60
2023-01-17T19:54:08.632Z,-1.60
2023-01-17T19:56:36.843Z,-1.60
2023-01-17T19:59:04.745Z,-1.60
2023-01-17T20:01:35.224Z,-1.60
2023-01-17T20:04:05.030Z,-1.70
2023-01-17T20:06:36.919Z,-1.70
2023-01-17T20:09:07.344Z,-1.70
2023-01-17T20:11:36.561Z,-1.50
2023-01-17T20:14:05.842Z,-1.60
2023-01-17T20:16:37.871Z,-1.60
2023-01-17T20:19:06.329Z,-1.70
2023-01-17T20:21:34.575Z,-1.70
2023-01-17T20:24:04.708Z,-1.70
2023-01-17T20:26:36.345Z,-1.70
2023-01-17T20:29:15.160Z,-1.70
2023-01-17T20:31:52.492Z,-1.60
2023-01-17T20:34:21.536Z,-1.50
2023-01-17T20:36:49.204Z,-1.40
2023-01-17T20:39:19.846Z,-1.50
2023-01-17T20:41:49.425Z,-1.60
2023-01-17T20:44:19.650Z,-1.70
2023-01-17T20:46:48.407Z,-1.90
2023-01-17T20:49:20.254Z,-2.00
2023-01-17T20:51:51.955Z,-1.90
2023-01-17T20:54:23.853Z,-1.70
2023-01-17T20:56:58.731Z,-1.60
2023-01-17T20:59:26.796Z,-1.60
2023-01-17T21:01:54.738Z,-1.60
2023-01-17T21:04:26.047Z,-1.60
2023-01-17T21:06:54.987Z,-1.70
2023-01-17T21:09:22.859Z,-1.80
2023-01-17T21:11:51.985Z,-1.90
2023-01-17T21:14:21.916Z,-1.90
2023-01-17T21:16:50.459Z,-1.90
2023-01-17T21:19:23.915Z,-1.80
2023-01-17T21:21:51.594Z,-1.80
2023-01-17T21:24:20.353Z,-1.70
2023-01-17T21:26:51.484Z,-1.70
2023-01-17T21:29:19.544Z,-1.70
2023-01-17T21:31:47.383Z,-1.90
2023-01-17T21:34:15.349Z,-2.00
2023-01-17T21:36:44.136Z,-1.90
2023-01-17T21:39:20.019Z,-2.00
2023-01-17T21:41:50.860Z,-2.00
2023-01-17T21:44:24.272Z,-2.00
2023-01-17T21:46:55.077Z,-2.10
2023-01-17T21:49:29.651Z,-2.20
2023-01-17T21:51:58.418Z,-2.30
2023-01-17T21:54:49.066Z,-2.40
2023-01-17T21:57:41.762Z,-2.30
2023-01-17T22:00:15.643Z,-2.30
2023-01-17T22:02:48.882Z,-2.20
2023-01-17T22:05:18.899Z,-2.20
2023-01-17T22:08:06.114Z,-2.20
2023-01-17T22:10:44.701Z,-2.10
2023-01-17T22:13:18.681Z,-2.10
2023-01-17T22:15:59.066Z,-2.20
2023-01-17T22:18:38.401Z,-2.40
2023-01-17T22:21:24.438Z,-2.40
2023-01-17T22:23:59.326Z,-2.40
2023-01-17T22:26:31.648Z,-2.40
2023-01-17T22:29:04.479Z,-2.30
2023-01-17T22:31:32.379Z,-2.30
2023-01-17T22:34:05.908Z,-2.30
2023-01-17T22:36:35.272Z,-2.30
2023-01-17T22:39:03.195Z,-2.30
2023-01-17T22:41:33.060Z,-2.50
2023-01-17T22:44:02.603Z,-2.50
2023-01-17T22:46:37.254Z,-2.60
2023-01-17T22:49:08.464Z,-2.60
2023-01-17T22:51:36.570Z,-2.70
2023-01-17T22:54:04.409Z,-2.70
2023-01-17T22:56:34.336Z,-2.70
2023-01-17T22:59:02.823Z,-2.60
2023-01-17T23:01:33.050Z,-2.70
2023-01-17T23:04:05.740Z,-2.70
2023-01-17T23:06:40.836Z,-2.70
2023-01-17T23:09:17.327Z,-2.90
2023-01-17T23:11:55.362Z,-2.80
2023-01-17T23:14:29.936Z,-2.60
2023-01-17T23:17:22.798Z,-2.50
2023-01-17T23:19:54.823Z,-2.50
2023-01-17T23:22:27.444Z,-2.40
2023-01-17T23:25:01.921Z,-2.50
2023-01-17T23:28:05.783Z,-2.60
2023-01-17T23:30:42.178Z,-2.70
2023-01-17T23:33:15.833Z,-2.80
2023-01-17T23:35:46.630Z,-2.80
2023-01-17T23:38:33.738Z,-2.90
2023-01-17T23:41:28.321Z,-2.80
2023-01-17T23:43:59.048Z,-2.90
2023-01-17T23:46:27.665Z,-2.80
2023-01-17T23:48:55.489Z,-2.80
2023-01-17T23:51:23.573Z,-2.90
2023-01-17T23:53:57.531Z,-2.80
2023-01-17T23:56:25.762Z,-2.80
2023-01-17T23:58:53.539Z,-2.70
